createdAt,value
2019-05-29T00:04:56.380Z,9.44
2019-05-29T00:10:20.474Z,9.39
2019-05-29T00:15:45.304Z,9.37
2019-05-29T00:21:11.556Z,9.33
2019-05-29T00:26:34.801Z,9.28
2019-05-29T00:31:59.555Z,9.25
2019-05-29T00:37:24.123Z,9.30
2019-05-29T00:42:48.742Z,9.34
2019-05-29T00:48:14.047Z,9.48
2019-05-29T00:53:39.570Z,9.53
2019-05-29T00:59:03.943Z,9.62
2019-05-29T01:04:28.801Z,9.66
2019-05-29T01:09:53.183Z,9.73
2019-05-29T01:15:18.101Z,9.72
2019-05-29T01:20:42.795Z,9.72
2019-05-29T01:26:06.539Z,9.81
2019-05-29T01:31:30.717Z,9.75
2019-05-29T01:36:55.270Z,9.78
2019-05-29T01:42:19.965Z,9.84
2019-05-29T01:47:44.746Z,9.96
2019-05-29T01:53:09.326Z,10.04
2019-05-29T01:58:34.056Z,10.07
2019-05-29T02:03:58.875Z,10.11
2019-05-29T02:09:24.297Z,10.18
2019-05-29T02:14:49.021Z,10.25
2019-05-29T02:20:13.348Z,10.27
2019-05-29T02:25:38.366Z,10.29
2019-05-29T02:31:02.796Z,10.30
2019-05-29T02:36:28.253Z,10.28
2019-05-29T02:41:53.138Z,10.25
2019-05-29T02:47:17.305Z,10.27
2019-05-29T02:52:42.255Z,10.29
2019-05-29T02:58:06.662Z,10.34
2019-05-29T03:03:38.002Z,10.40
2019-05-29T03:08:56.010Z,10.42
2019-05-29T03:14:20.348Z,10.44
2019-05-29T03:19:45.949Z,10.44
2019-05-29T03:25:10.588Z,10.44
2019-05-29T03:30:42.182Z,10.45
2019-05-29T03:36:00.346Z,10.44
2019-05-29T03:41:24.194Z,10.45
2019-05-29T03:46:48.161Z,10.46
2019-05-29T03:52:12.447Z,10.49
2019-05-29T03:57:37.852Z,10.54
2019-05-29T04:03:02.672Z,10.57
2019-05-29T04:08:29.458Z,10.65
2019-05-29T04:13:53.590Z,10.77
2019-05-29T04:19:19.044Z,10.77
2019-05-29T04:24:43.674Z,10.86
2019-05-29T04:30:08.475Z,10.82
2019-05-29T04:35:34.597Z,10.85
2019-05-29T04:40:59.258Z,10.96
2019-05-29T04:46:23.988Z,11.12
2019-05-29T04:51:48.668Z,11.13
2019-05-29T04:57:12.431Z,11.11
2019-05-29T05:02:37.292Z,11.24
2019-05-29T05:08:01.151Z,11.46
2019-05-29T05:13:25.817Z,11.75
2019-05-29T05:18:50.269Z,11.86
2019-05-29T05:24:14.415Z,11.94
2019-05-29T05:29:38.851Z,11.91
2019-05-29T05:35:02.859Z,12.05
2019-05-29T05:40:26.401Z,12.05
2019-05-29T05:45:51.048Z,12.34
2019-05-29T05:51:15.015Z,13.12
2019-05-29T05:56:39.806Z,13.89
2019-05-29T06:02:04.652Z,14.46
2019-05-29T06:07:28.691Z,15.69
2019-05-29T06:12:52.423Z,16.36
2019-05-29T06:18:21.648Z,16.43
2019-05-29T06:23:43.745Z,15.24
2019-05-29T06:29:07.605Z,15.44
2019-05-29T06:34:31.586Z,16.27
2019-05-29T06:39:56.215Z,16.05
2019-05-29T06:45:23.973Z,15.92
2019-05-29T06:50:48.234Z,15.77
2019-05-29T06:56:12.707Z,15.72
2019-05-29T07:01:37.488Z,15.58
2019-05-29T07:07:01.355Z,17.03
2019-05-29T07:12:25.388Z,17.40
2019-05-29T07:17:50.058Z,17.15
2019-05-29T07:23:14.803Z,18.64
2019-05-29T07:28:59.771Z,19.69
2019-05-29T07:34:05.227Z,19.38
2019-05-29T07:39:29.399Z,18.15
2019-05-29T07:44:53.168Z,17.78
2019-05-29T07:50:18.494Z,17.49
2019-05-29T07:55:42.716Z,17.86
2019-05-29T08:01:13.176Z,17.92
2019-05-29T08:06:33.804Z,18.70
2019-05-29T08:11:58.373Z,18.19
2019-05-29T08:17:23.181Z,18.38
2019-05-29T08:22:46.793Z,17.99
2019-05-29T08:28:11.304Z,18.34
2019-05-29T08:33:35.901Z,19.05
2019-05-29T08:38:59.856Z,18.80
2019-05-29T08:44:24.683Z,18.00
2019-05-29T08:49:53.139Z,20.28
2019-05-29T08:55:15.667Z,18.81
2019-05-29T09:00:45.589Z,17.60
2019-05-29T09:06:09.619Z,16.92
2019-05-29T09:11:32.436Z,18.25
2019-05-29T09:16:57.724Z,20.41
2019-05-29T09:22:22.930Z,20.83
2019-05-29T09:27:47.428Z,22.47
2019-05-29T09:33:15.289Z,23.21
2019-05-29T09:38:37.929Z,22.95
2019-05-29T09:44:02.833Z,21.08
2019-05-29T09:49:28.091Z,20.80
2019-05-29T09:54:53.447Z,21.55
2019-05-29T10:00:19.639Z,22.56
2019-05-29T10:05:44.252Z,22.38
2019-05-29T10:11:10.981Z,23.38
2019-05-29T10:16:34.578Z,21.63
2019-05-29T10:22:00.753Z,22.95
2019-05-29T10:27:23.587Z,21.62
2019-05-29T10:32:48.183Z,20.95
2019-05-29T10:38:12.211Z,20.65
2019-05-29T10:43:36.880Z,21.62
2019-05-29T10:49:04.830Z,23.53
2019-05-29T10:54:28.688Z,23.47
2019-05-29T10:59:53.033Z,23.22
2019-05-29T11:05:18.130Z,22.04
2019-05-29T11:10:41.872Z,23.88
2019-05-29T11:16:06.629Z,22.56
2019-05-29T11:21:30.847Z,22.49
2019-05-29T11:26:56.664Z,24.14
2019-05-29T11:32:20.333Z,24.41
2019-05-29T11:37:45.096Z,25.09
2019-05-29T11:43:09.557Z,24.80
2019-05-29T11:48:33.353Z,24.07
2019-05-29T11:53:57.887Z,25.03
2019-05-29T11:59:21.628Z,25.44
2019-05-29T12:04:46.373Z,24.02
2019-05-29T12:10:11.432Z,25.32
2019-05-29T12:15:35.223Z,24.26
2019-05-29T12:21:01.099Z,25.16
2019-05-29T12:26:24.543Z,24.63
2019-05-29T12:31:48.322Z,25.39
2019-05-29T12:37:12.563Z,26.21
2019-05-29T12:42:37.613Z,26.61
2019-05-29T12:48:06.485Z,27.28
2019-05-29T12:53:30.926Z,27.31
2019-05-29T12:58:54.442Z,25.75
2019-05-29T13:04:18.028Z,26.40
2019-05-29T13:09:43.016Z,26.89
2019-05-29T13:15:07.804Z,26.77
2019-05-29T13:20:32.212Z,27.42
2019-05-29T13:25:57.334Z,27.46
2019-05-29T13:31:21.962Z,26.37
2019-05-29T13:36:47.118Z,27.16
2019-05-29T13:42:12.219Z,26.89
2019-05-29T13:47:37.052Z,26.16
2019-05-29T13:53:01.292Z,23.96
2019-05-29T13:58:25.066Z,24.95
2019-05-29T14:03:50.619Z,26.69
2019-05-29T14:09:15.707Z,26.63
2019-05-29T14:14:39.312Z,26.97
2019-05-29T14:20:04.682Z,26.18
2019-05-29T14:25:29.657Z,26.43
2019-05-29T14:30:54.365Z,26.69
2019-05-29T14:36:18.635Z,26.87
2019-05-29T14:41:43.425Z,27.35
2019-05-29T14:47:08.262Z,26.88
2019-05-29T14:52:32.509Z,27.03
2019-05-29T14:57:56.165Z,27.07
2019-05-29T15:03:20.671Z,25.79
2019-05-29T15:08:46.332Z,26.19
2019-05-29T15:14:12.339Z,25.51
2019-05-29T15:19:37.342Z,25.25
2019-05-29T15:25:13.468Z,26.19
2019-05-29T15:30:27.317Z,25.47
2019-05-29T15:35:50.887Z,26.19
2019-05-29T15:41:16.895Z,26.46
2019-05-29T15:46:40.997Z,25.63
2019-05-29T15:52:04.806Z,25.58
2019-05-29T15:57:29.117Z,24.52
2019-05-29T16:02:55.879Z,23.14
2019-05-29T16:08:21.605Z,22.97
2019-05-29T16:13:46.406Z,22.57
2019-05-29T16:19:10.348Z,21.64
2019-05-29T16:24:34.748Z,21.48
2019-05-29T16:29:58.767Z,22.27
2019-05-29T16:35:24.107Z,21.18
2019-05-29T16:40:49.314Z,21.05
2019-05-29T16:46:17.330Z,20.05
2019-05-29T16:51:41.945Z,20.05
2019-05-29T16:57:05.028Z,20.57
2019-05-29T17:02:30.098Z,20.21
2019-05-29T17:07:54.722Z,19.57
2019-05-29T17:13:18.725Z,20.02
2019-05-29T17:18:44.610Z,19.78
2019-05-29T17:24:09.973Z,19.71
2019-05-29T17:29:34.001Z,19.66
2019-05-29T17:34:58.613Z,19.48
2019-05-29T17:40:23.566Z,17.94
2019-05-29T17:45:48.357Z,18.02
2019-05-29T17:51:13.246Z,17.21
2019-05-29T17:56:37.829Z,17.59
2019-05-29T18:02:02.555Z,17.61
2019-05-29T18:07:27.269Z,16.97
2019-05-29T18:12:52.102Z,16.75
2019-05-29T18:18:17.349Z,16.44
2019-05-29T18:23:41.050Z,16.23
2019-05-29T18:29:05.125Z,16.01
2019-05-29T18:34:29.841Z,15.74
2019-05-29T18:39:55.732Z,15.65
2019-05-29T18:45:22.867Z,15.57
2019-05-29T18:50:45.355Z,15.28
2019-05-29T18:56:09.031Z,15.18
2019-05-29T19:01:32.717Z,15.12
2019-05-29T19:06:58.673Z,14.87
2019-05-29T19:12:23.727Z,14.58
2019-05-29T19:17:49.359Z,14.32
2019-05-29T19:23:13.970Z,14.13
2019-05-29T19:28:38.740Z,13.85
2019-05-29T19:34:02.758Z,13.70
2019-05-29T19:39:27.979Z,13.53
2019-05-29T19:44:52.088Z,13.25
2019-05-29T19:50:17.049Z,12.92
2019-05-29T19:55:42.214Z,12.78
2019-05-29T20:01:07.217Z,12.77
2019-05-29T20:06:33.089Z,12.74
2019-05-29T20:11:57.580Z,12.61
2019-05-29T20:17:21.416Z,12.47
2019-05-29T20:22:46.408Z,12.14
2019-05-29T20:28:10.207Z,11.74
2019-05-29T20:33:34.635Z,11.53
2019-05-29T20:38:58.464Z,11.49
2019-05-29T20:44:22.174Z,11.37
2019-05-29T20:49:47.666Z,11.23
2019-05-29T20:55:13.140Z,11.23
2019-05-29T21:00:38.290Z,11.12
2019-05-29T21:06:02.274Z,10.88
2019-05-29T21:11:26.132Z,10.95
2019-05-29T21:16:50.720Z,10.90
2019-05-29T21:22:15.330Z,10.49
2019-05-29T21:27:43.947Z,10.31
2019-05-29T21:33:05.720Z,10.06
2019-05-29T21:38:29.942Z,9.76
2019-05-29T21:43:53.543Z,9.46
2019-05-29T21:49:18.035Z,9.32
2019-05-29T21:54:43.568Z,9.12
2019-05-29T22:00:14.036Z,8.77
2019-05-29T22:05:40.520Z,8.48
2019-05-29T22:11:04.821Z,8.32
2019-05-29T22:16:29.532Z,8.12
2019-05-29T22:21:55.002Z,8.02
2019-05-29T22:27:18.796Z,7.95
2019-05-29T22:32:42.777Z,7.95
2019-05-29T22:38:07.542Z,8.14
2019-05-29T22:43:32.221Z,8.32
2019-05-29T22:48:57.821Z,8.50
2019-05-29T22:54:22.483Z,8.32
2019-05-29T22:59:47.028Z,8.31
2019-05-29T23:05:11.821Z,8.37
2019-05-29T23:10:36.286Z,8.28
2019-05-29T23:16:00.963Z,8.16
2019-05-29T23:21:25.688Z,8.06
2019-05-29T23:26:50.719Z,7.77
2019-05-29T23:32:15.145Z,7.49
2019-05-29T23:37:38.959Z,7.37
2019-05-29T23:43:03.703Z,7.43
2019-05-29T23:48:27.881Z,7.31
2019-05-29T23:53:51.649Z,7.29
2019-05-29T23:59:16.408Z,7.13
